Open Full Screen Window  High Contrast Mode
Wind Gusting 00 knots
17
March 30, 2017 12:28 PM EDT
Present Weather: Rain and Mist
Weather Information
Wind Direction
  090 °
Wind Speed
  17 kt (20 mph)
Wind Gust
  00 kt (0 mph)
Altimeter
29.93 in
Visibility
3 SM
Temperature
03° C
37° F
Dewpoint
02° C
36° F
Humidity
93%
1hr Rain Fall
00.00 in.
24hr Rain Fall
00.00 in.
Sky Condition
Overcast @ 4,100 ft
Scattered @ 2,700 ft
Scattered @ 800 ft
MVFR

METAR KPCW 301628Z AUTO 09017KT 3SM RA BR SCT008 SCT027 OVC041 03/02 A2993 RMK

*Background is not an actual portrayal of the airport.